createdAt,value
2022-10-23T00:02:09.563Z,95842.84
2022-10-23T00:04:37.034Z,95839.72
2022-10-23T00:07:04.455Z,95837.63
2022-10-23T00:09:31.868Z,95822.16
2022-10-23T00:11:59.339Z,95826.09
2022-10-23T00:14:26.804Z,95826.88
2022-10-23T00:16:54.357Z,95822.44
2022-10-23T00:19:23.108Z,95818.50
2022-10-23T00:21:50.545Z,95822.16
2022-10-23T00:24:18.080Z,95819.31
2022-10-23T00:26:45.572Z,95818.78
2022-10-23T00:29:13.308Z,95825.06
2022-10-23T00:31:40.804Z,95809.63
2022-10-23T00:34:09.162Z,95808.06
2022-10-23T00:36:38.461Z,95823.19
2022-10-23T00:39:07.017Z,95819.28
2022-10-23T00:41:34.551Z,95819.28
2022-10-23T00:44:06.328Z,95821.88
2022-10-23T00:46:35.372Z,95817.94
2022-10-23T00:49:04.540Z,95826.31
2022-10-23T00:51:41.088Z,95832.03
2022-10-23T00:54:23.595Z,95827.59
2022-10-23T00:56:53.566Z,95831.28
2022-10-23T00:59:21.048Z,95836.25
2022-10-23T01:01:48.992Z,95836.75
2022-10-23T01:04:16.973Z,95814.03
2022-10-23T01:06:53.729Z,95821.34
2022-10-23T01:09:29.430Z,95819.78
2022-10-23T01:12:01.804Z,95800.69
2022-10-23T01:14:38.496Z,95814.56
2022-10-23T01:17:10.373Z,95815.31
2022-10-23T01:19:52.336Z,95818.19
2022-10-23T01:22:34.144Z,95820.81
2022-10-23T01:25:08.218Z,95813.75
2022-10-23T01:27:40.727Z,95802.75
2022-10-23T01:30:10.588Z,95814.78
2022-10-23T01:32:45.341Z,95808.25
2022-10-23T01:35:17.136Z,95802.22
2022-10-23T01:37:48.692Z,95800.66
2022-10-23T01:40:24.032Z,95807.69
2022-10-23T01:42:56.472Z,95798.53
2022-10-23T01:45:29.453Z,95795.13
2022-10-23T01:47:58.084Z,95793.84
2022-10-23T01:50:27.305Z,95786.75
2022-10-23T01:52:54.789Z,95781.00
2022-10-23T01:55:24.007Z,95775.78
2022-10-23T01:57:54.530Z,95771.38
2022-10-23T02:00:22.364Z,95770.06
2022-10-23T02:02:52.001Z,95759.63
2022-10-23T02:05:23.346Z,95763.56
2022-10-23T02:07:51.536Z,95759.38
2022-10-23T02:10:20.527Z,95763.81
2022-10-23T02:12:54.989Z,95736.91
2022-10-23T02:15:30.182Z,95752.06
2022-10-23T02:18:09.510Z,95752.38
2022-10-23T02:20:41.461Z,95758.38
2022-10-23T02:23:20.009Z,95760.75
2022-10-23T02:25:54.356Z,95751.88
2022-10-23T02:28:27.816Z,95736.22
2022-10-23T02:31:00.100Z,95722.34
2022-10-23T02:33:28.974Z,95721.81
2022-10-23T02:35:56.738Z,95678.44
2022-10-23T02:38:30.695Z,95716.88
2022-10-23T02:41:01.696Z,95698.84
2022-10-23T02:43:36.653Z,95704.59
2022-10-23T02:46:15.533Z,95709.81
2022-10-23T02:48:49.132Z,95710.09
2022-10-23T02:51:22.666Z,95722.34
2022-10-23T02:54:00.952Z,95711.91
2022-10-23T02:56:36.716Z,95710.59
2022-10-23T02:59:11.839Z,95709.56
2022-10-23T03:01:49.682Z,95694.13
2022-10-23T03:04:18.614Z,95692.31
2022-10-23T03:06:46.838Z,95692.56
2022-10-23T03:09:14.284Z,95697.53
2022-10-23T03:11:41.701Z,95697.53
2022-10-23T03:14:09.205Z,95701.19
2022-10-23T03:16:36.617Z,95692.03
2022-10-23T03:19:05.431Z,95686.81
2022-10-23T03:21:32.888Z,95696.50
2022-10-23T03:24:00.325Z,95689.94
2022-10-23T03:26:27.774Z,95683.44
2022-10-23T03:28:55.217Z,95677.16
2022-10-23T03:31:22.674Z,95681.56
2022-10-23T03:33:50.105Z,95694.91
2022-10-23T03:36:18.903Z,95687.84
2022-10-23T03:38:46.306Z,95676.88
2022-10-23T03:41:13.761Z,95683.94
2022-10-23T03:43:41.170Z,95666.97
2022-10-23T03:46:12.357Z,95674.56
2022-10-23T03:48:40.863Z,95676.88
2022-10-23T03:51:08.694Z,95674.03
2022-10-23T03:53:37.421Z,95670.38
2022-10-23T03:56:05.209Z,95667.47
2022-10-23T03:58:32.723Z,95657.56
2022-10-23T04:01:00.217Z,95658.38
2022-10-23T04:03:27.638Z,95662.78
2022-10-23T04:05:55.081Z,95651.06
2022-10-23T04:08:22.533Z,95643.22
2022-10-23T04:10:51.320Z,95655.47
2022-10-23T04:13:18.724Z,95647.38
2022-10-23T04:15:49.363Z,95646.59
2022-10-23T04:18:16.989Z,95633.00
2022-10-23T04:20:44.418Z,95629.63
2022-10-23T04:23:11.853Z,95640.59
2022-10-23T04:25:39.384Z,95640.06
2022-10-23T04:28:08.163Z,95622.31
2022-10-23T04:30:35.711Z,95625.44
2022-10-23T04:33:03.179Z,95628.81
2022-10-23T04:35:30.634Z,95632.22
2022-10-23T04:37:58.052Z,95628.56
2022-10-23T04:40:25.438Z,95614.72
2022-10-23T04:42:52.897Z,95614.19
2022-10-23T04:45:21.673Z,95617.09
2022-10-23T04:47:49.124Z,95605.31
2022-10-23T04:50:16.786Z,95605.31
2022-10-23T04:52:44.591Z,95615.53
2022-10-23T04:55:12.481Z,95604.03
2022-10-23T04:57:39.913Z,95598.53
2022-10-23T05:00:11.033Z,95599.31
2022-10-23T05:02:39.898Z,95609.25
2022-10-23T05:05:08.808Z,95608.97
2022-10-23T05:07:37.132Z,95612.38
2022-10-23T05:10:04.950Z,95603.75
2022-10-23T05:12:32.355Z,95614.19
2022-10-23T05:14:59.802Z,95604.03
2022-10-23T05:17:33.002Z,95608.72
2022-10-23T05:20:06.464Z,95606.34
2022-10-23T05:22:37.860Z,95597.75
2022-10-23T05:25:07.284Z,95583.66
2022-10-23T05:27:34.736Z,95602.97
2022-10-23T05:30:02.833Z,95599.06
2022-10-23T05:32:32.551Z,95593.59
2022-10-23T05:35:07.410Z,95591.75
2022-10-23T05:37:35.249Z,95580.00
2022-10-23T05:40:02.865Z,95581.81
2022-10-23T05:42:30.276Z,95577.13
2022-10-23T05:44:57.670Z,95577.91
2022-10-23T05:47:25.169Z,95578.16
2022-10-23T05:49:52.591Z,95571.66
2022-10-23T05:52:21.363Z,95571.13
2022-10-23T05:54:48.753Z,95577.38
2022-10-23T05:59:48.564Z,95557.00
2022-10-23T06:02:16.002Z,95570.84
2022-10-23T06:04:43.458Z,95576.84
2022-10-23T06:07:10.899Z,95567.44
2022-10-23T06:09:39.837Z,95581.03
2022-10-23T06:12:07.366Z,95573.22
2022-10-23T06:14:34.921Z,95570.84
2022-10-23T06:17:02.361Z,95573.47
2022-10-23T06:19:29.783Z,95573.75
2022-10-23T06:21:57.219Z,95570.63
2022-10-23T06:24:24.859Z,95558.59
2022-10-23T06:26:53.805Z,95565.13
2022-10-23T06:29:21.543Z,95557.81
2022-10-23T06:31:48.995Z,95557.56
2022-10-23T06:34:16.798Z,95557.03
2022-10-23T06:36:44.860Z,95547.34
2022-10-23T06:39:12.370Z,95553.06
2022-10-23T06:41:41.935Z,95546.25
2022-10-23T06:44:11.307Z,95542.03
2022-10-23T06:46:38.733Z,95535.78
2022-10-23T06:49:06.161Z,95544.13
2022-10-23T06:51:33.698Z,95547.00
2022-10-23T06:54:01.191Z,95545.13
2022-10-23T06:56:30.229Z,95526.34
2022-10-23T06:58:57.765Z,95550.09
2022-10-23T07:02:00.900Z,95550.09
2022-10-23T07:04:28.309Z,95545.63
2022-10-23T07:06:56.495Z,95550.34
2022-10-23T07:09:24.146Z,95550.84
2022-10-23T07:11:51.555Z,95545.09
2022-10-23T07:14:19.000Z,95547.19
2022-10-23T07:16:46.431Z,95558.13
2022-10-23T07:19:15.193Z,95551.34
2022-10-23T07:21:42.618Z,95542.94
2022-10-23T07:24:10.025Z,95541.03
2022-10-23T07:26:37.557Z,95537.13
2022-10-23T07:29:05.276Z,95535.25
2022-10-23T07:31:32.678Z,95533.91
2022-10-23T07:34:00.227Z,95526.25
2022-10-23T07:36:29.028Z,95529.84
2022-10-23T07:38:56.436Z,95526.16
2022-10-23T07:41:24.062Z,95524.59
2022-10-23T07:43:51.511Z,95522.16
2022-10-23T07:46:18.906Z,95524.94
2022-10-23T07:48:46.314Z,95528.53
2022-10-23T07:51:15.543Z,95523.19
2022-10-23T07:53:45.382Z,95517.31
2022-10-23T07:56:16.018Z,95516.94
2022-10-23T07:58:43.725Z,95507.66
2022-10-23T08:01:18.843Z,95508.66
2022-10-23T08:03:46.343Z,95510.16
2022-10-23T08:06:13.749Z,95512.94
2022-10-23T08:08:41.317Z,95513.16
2022-10-23T08:11:13.478Z,95520.91
2022-10-23T08:13:40.939Z,95504.34
2022-10-23T08:16:08.989Z,95502.97
2022-10-23T08:18:36.376Z,95508.66
2022-10-23T08:21:05.026Z,95507.81
2022-10-23T08:23:32.655Z,95507.69
2022-10-23T08:26:02.394Z,95511.19
2022-10-23T08:28:31.140Z,95515.00
2022-10-23T08:30:59.080Z,95499.75
2022-10-23T08:33:26.499Z,95496.56
2022-10-23T08:35:53.907Z,95505.94
2022-10-23T08:38:21.278Z,95486.22
2022-10-23T08:40:50.056Z,95494.03
2022-10-23T08:43:22.801Z,95492.22
2022-10-23T08:45:56.762Z,95494.28
2022-10-23T08:48:29.398Z,95497.34
2022-10-23T08:51:01.305Z,95490.78
2022-10-23T08:53:35.317Z,95478.09
2022-10-23T08:56:05.386Z,95463.81
2022-10-23T08:58:40.933Z,95455.75
2022-10-23T09:01:29.087Z,95460.13
2022-10-23T09:03:57.265Z,95464.88
2022-10-23T09:06:35.135Z,95464.03
2022-10-23T09:09:19.953Z,95452.41
2022-10-23T09:11:55.712Z,95459.41
2022-10-23T09:14:53.965Z,95444.44
2022-10-23T09:17:25.867Z,95447.81
2022-10-23T09:20:01.233Z,95445.31
2022-10-23T09:22:29.731Z,95437.94
2022-10-23T09:24:57.227Z,95432.69
2022-10-23T09:27:24.921Z,95434.41
2022-10-23T09:29:55.032Z,95430.22
2022-10-23T09:32:35.503Z,95426.63
2022-10-23T09:35:02.960Z,95417.19
2022-10-23T09:37:32.615Z,95413.75
2022-10-23T09:40:13.327Z,95418.25
2022-10-23T09:42:52.163Z,95425.66
2022-10-23T09:45:31.878Z,95436.34
2022-10-23T09:48:14.472Z,95438.59
2022-10-23T09:50:51.182Z,95419.88
2022-10-23T09:53:31.311Z,95429.47
2022-10-23T09:56:02.148Z,95423.03
2022-10-23T09:58:35.785Z,95413.31
2022-10-23T10:01:04.096Z,95424.97
2022-10-23T10:03:33.128Z,95410.84
2022-10-23T10:06:02.926Z,95404.13
2022-10-23T10:08:44.168Z,95393.13
2022-10-23T10:11:18.735Z,95385.31
2022-10-23T10:14:02.491Z,95381.63
2022-10-23T10:19:26.697Z,95373.72
2022-10-23T10:21:59.709Z,95365.34
2022-10-23T10:24:33.186Z,95368.97
2022-10-23T10:27:11.380Z,95381.97
2022-10-23T10:29:59.059Z,95385.13
2022-10-23T10:32:37.244Z,95382.78
2022-10-23T10:35:20.174Z,95389.31
2022-10-23T10:38:02.155Z,95386.25
2022-10-23T10:40:34.220Z,95388.50
2022-10-23T10:43:21.511Z,95368.34
2022-10-23T10:45:50.340Z,95371.66
2022-10-23T10:48:31.212Z,95367.53
2022-10-23T10:51:04.757Z,95375.38
2022-10-23T10:53:39.855Z,95383.72
2022-10-23T10:56:14.361Z,95371.81
2022-10-23T10:58:46.300Z,95364.34
2022-10-23T11:01:26.312Z,95365.69
2022-10-23T11:03:57.809Z,95360.78
2022-10-23T11:06:32.358Z,95340.84
2022-10-23T11:12:17.304Z,95339.66
2022-10-23T11:14:46.035Z,95332.38
2022-10-23T11:17:19.572Z,95329.25
2022-10-23T11:19:51.322Z,95331.50
2022-10-23T11:22:24.951Z,95342.38
2022-10-23T11:25:17.439Z,95343.03
2022-10-23T11:28:02.826Z,95341.38
2022-10-23T11:30:41.567Z,95337.38
2022-10-23T11:33:47.293Z,95338.13
2022-10-23T11:36:17.783Z,95335.69
2022-10-23T11:38:48.859Z,95333.66
2022-10-23T11:41:25.525Z,95320.19
2022-10-23T11:43:56.986Z,95329.78
2022-10-23T11:46:32.482Z,95328.84
2022-10-23T11:49:02.368Z,95330.44
2022-10-23T11:51:31.882Z,95322.38
2022-10-23T11:54:27.062Z,95316.97
2022-10-23T11:57:08.053Z,95297.25
2022-10-23T11:59:51.006Z,95302.84
2022-10-23T12:02:26.531Z,95283.91
2022-10-23T12:04:55.058Z,95302.22
2022-10-23T12:07:25.787Z,95309.03
2022-10-23T12:10:00.972Z,95308.09
2022-10-23T12:12:32.119Z,95288.88
2022-10-23T12:15:22.100Z,95302.66
2022-10-23T12:17:51.215Z,95299.72
2022-10-23T12:20:39.129Z,95302.97
2022-10-23T12:23:32.778Z,95288.84
2022-10-23T12:26:23.164Z,95290.56
2022-10-23T12:29:00.016Z,95278.78
2022-10-23T12:31:37.171Z,95262.16
2022-10-23T12:34:18.456Z,95257.34
2022-10-23T12:36:57.263Z,95248.34
2022-10-23T12:39:27.099Z,95255.97
2022-10-23T12:41:56.322Z,95258.75
2022-10-23T12:44:25.156Z,95254.53
2022-10-23T12:46:57.362Z,95241.53
2022-10-23T12:49:27.105Z,95250.03
2022-10-23T12:51:59.820Z,95246.19
2022-10-23T12:54:28.424Z,95238.25
2022-10-23T12:56:57.315Z,95239.03
2022-10-23T12:59:27.210Z,95239.94
2022-10-23T13:01:55.229Z,95240.44
2022-10-23T13:04:31.027Z,95227.06
2022-10-23T13:07:01.338Z,95229.84
2022-10-23T13:09:32.000Z,95219.88
2022-10-23T13:12:02.924Z,95214.44
2022-10-23T13:14:39.300Z,95216.94
2022-10-23T13:17:11.489Z,95212.59
2022-10-23T13:19:39.267Z,95222.84
2022-10-23T13:22:19.490Z,95211.03
2022-10-23T13:24:47.364Z,95217.38
2022-10-23T13:27:32.654Z,95208.09
2022-10-23T13:30:00.506Z,95200.75
2022-10-23T13:32:31.131Z,95196.56
2022-10-23T13:35:10.342Z,95196.13
2022-10-23T13:37:46.557Z,95193.66
2022-10-23T13:40:23.335Z,95188.56
2022-10-23T13:42:52.169Z,95198.34
2022-10-23T13:45:23.010Z,95196.00
2022-10-23T13:47:50.766Z,95197.84
2022-10-23T13:50:18.840Z,95185.13
2022-10-23T13:52:46.460Z,95179.97
2022-10-23T13:55:20.868Z,95189.44
2022-10-23T13:57:48.328Z,95175.31
2022-10-23T14:00:18.010Z,95169.28
2022-10-23T14:02:45.698Z,95172.72
2022-10-23T14:05:13.607Z,95166.66
2022-10-23T14:07:41.193Z,95180.13
2022-10-23T14:10:09.374Z,95173.47
2022-10-23T14:12:40.631Z,95166.63
2022-10-23T14:15:09.600Z,95163.03
2022-10-23T14:17:38.510Z,95168.31
2022-10-23T14:20:07.394Z,95172.50
2022-10-23T14:22:34.905Z,95181.84
2022-10-23T14:25:02.419Z,95190.84
2022-10-23T14:27:30.995Z,95190.06
2022-10-23T14:29:59.243Z,95180.63
2022-10-23T14:32:26.670Z,95180.63
2022-10-23T14:34:55.637Z,95170.69
2022-10-23T14:37:23.050Z,95171.16
2022-10-23T14:39:50.589Z,95173.22
2022-10-23T14:42:18.460Z,95172.00
2022-10-23T14:44:45.912Z,95177.56
2022-10-23T14:47:13.355Z,95168.56
2022-10-23T14:49:41.100Z,95181.59
2022-10-23T14:52:09.831Z,95167.00
2022-10-23T14:54:37.975Z,95169.47
2022-10-23T14:57:05.613Z,95168.22
2022-10-23T14:59:33.046Z,95155.69
2022-10-23T15:02:00.545Z,95164.19
2022-10-23T15:04:28.128Z,95157.69
2022-10-23T15:06:55.552Z,95166.25
2022-10-23T15:09:25.136Z,95154.44
2022-10-23T15:11:52.556Z,95156.31
2022-10-23T15:14:20.214Z,95147.63
2022-10-23T15:16:48.284Z,95146.56
2022-10-23T15:19:18.563Z,95121.44
2022-10-23T15:21:47.588Z,95121.44
2022-10-23T15:24:15.181Z,95121.44
2022-10-23T15:26:44.351Z,95127.66
2022-10-23T15:29:15.324Z,95129.19
2022-10-23T15:31:44.863Z,95122.69
2022-10-23T15:34:15.828Z,95126.72
2022-10-23T15:36:44.778Z,95123.91
2022-10-23T15:39:14.231Z,95119.91
2022-10-23T15:41:42.786Z,95136.03
2022-10-23T15:44:14.275Z,95138.94
2022-10-23T15:46:41.899Z,95151.66
2022-10-23T15:49:09.426Z,95142.66
2022-10-23T15:51:37.823Z,95144.84
2022-10-23T15:54:05.805Z,95141.91
2022-10-23T15:56:33.668Z,95138.19
2022-10-23T15:59:01.452Z,95143.75
2022-10-23T16:01:30.531Z,95134.91
2022-10-23T16:03:58.037Z,95142.78
2022-10-23T16:06:25.517Z,95144.81
2022-10-23T16:11:23.436Z,95144.97
2022-10-23T16:13:50.896Z,95151.00
2022-10-23T16:16:19.190Z,95157.19
2022-10-23T16:18:48.044Z,95172.38
2022-10-23T16:21:19.375Z,95185.09
2022-10-23T16:23:47.342Z,95265.94
2022-10-23T16:26:15.592Z,95263.81
2022-10-23T16:28:43.850Z,95204.00
2022-10-23T16:31:15.358Z,95199.03
2022-10-23T16:33:45.082Z,95168.31
2022-10-23T16:36:13.972Z,95159.97
2022-10-23T16:38:41.423Z,95161.63
2022-10-23T16:41:08.903Z,95140.34
2022-10-23T16:43:36.328Z,95142.97
2022-10-23T16:46:06.322Z,95143.25
2022-10-23T16:48:34.371Z,95145.41
2022-10-23T16:51:05.332Z,95171.38
2022-10-23T16:53:34.596Z,95143.53
2022-10-23T16:56:04.896Z,95154.72
2022-10-23T16:58:33.087Z,95112.97
2022-10-23T17:01:01.990Z,95136.06
2022-10-23T17:03:29.598Z,95138.75
2022-10-23T17:06:01.605Z,95110.59
2022-10-23T17:08:29.967Z,95089.00
2022-10-23T17:11:09.849Z,95101.03
2022-10-23T17:13:39.607Z,95092.34
2022-10-23T17:16:09.718Z,95103.31
2022-10-23T17:18:41.305Z,95117.53
2022-10-23T17:21:11.485Z,95136.94
2022-10-23T17:23:38.928Z,95137.22
2022-10-23T17:26:09.292Z,95135.66
2022-10-23T17:28:41.584Z,95126.81
2022-10-23T17:31:17.116Z,95122.59
2022-10-23T17:33:45.796Z,95118.63
2022-10-23T17:36:16.476Z,95108.94
2022-10-23T17:38:44.450Z,95122.44
2022-10-23T17:41:15.871Z,95120.09
2022-10-23T17:43:44.432Z,95107.66
2022-10-23T17:46:13.325Z,95093.88
2022-10-23T17:48:41.796Z,95111.69
2022-10-23T17:51:11.296Z,95102.78
2022-10-23T17:53:40.804Z,95116.78
2022-10-23T17:56:10.614Z,95116.22
2022-10-23T17:58:39.500Z,95116.72
2022-10-23T18:01:07.874Z,95097.97
2022-10-23T18:03:36.157Z,95120.25
2022-10-23T18:06:07.922Z,95119.63
2022-10-23T18:08:36.293Z,95122.59
2022-10-23T18:11:05.092Z,95122.59
2022-10-23T18:13:33.397Z,95130.81
2022-10-23T18:16:06.891Z,95120.34
2022-10-23T18:18:34.555Z,95070.31
2022-10-23T18:21:02.942Z,95124.72
2022-10-23T18:23:31.273Z,95095.63
2022-10-23T18:25:59.985Z,95111.56
2022-10-23T18:28:29.161Z,95115.59
2022-10-23T18:30:57.307Z,95105.97
2022-10-23T18:33:26.481Z,95118.56
2022-10-23T18:35:54.023Z,95092.00
2022-10-23T18:38:21.480Z,95123.16
2022-10-23T18:40:55.514Z,95119.78
2022-10-23T18:43:42.062Z,95104.97
2022-10-23T18:46:10.640Z,95108.88
2022-10-23T18:48:39.485Z,95101.72
2022-10-23T18:51:15.689Z,95116.09
2022-10-23T18:53:46.495Z,95116.88
2022-10-23T18:56:14.208Z,95107.06
2022-10-23T18:58:42.865Z,95089.06
2022-10-23T19:01:10.442Z,95104.38
2022-10-23T19:03:39.305Z,95112.69
2022-10-23T19:06:07.719Z,95100.38
2022-10-23T19:08:36.950Z,95096.63
2022-10-23T19:11:06.346Z,95092.66
2022-10-23T19:13:38.918Z,95085.09
2022-10-23T19:16:09.686Z,95076.88
2022-10-23T19:18:40.699Z,95077.84
2022-10-23T19:21:08.513Z,95090.03
2022-10-23T19:23:37.223Z,95098.16
2022-10-23T19:26:08.649Z,95093.97
2022-10-23T19:28:37.914Z,95089.63
2022-10-23T19:31:07.497Z,95118.63
2022-10-23T19:33:36.024Z,95118.19
2022-10-23T19:36:06.535Z,95112.91
2022-10-23T19:38:35.500Z,95119.13
2022-10-23T19:41:03.746Z,95117.84
2022-10-23T19:43:31.195Z,95109.88
2022-10-23T19:46:03.939Z,95117.00
2022-10-23T19:48:34.126Z,95123.09
2022-10-23T19:51:01.572Z,95140.50
2022-10-23T19:53:30.577Z,95143.88
2022-10-23T19:56:03.573Z,95138.28
2022-10-23T19:58:31.062Z,95141.13
2022-10-23T20:00:58.567Z,95140.00
2022-10-23T20:03:26.011Z,95145.59
2022-10-23T20:05:53.479Z,95125.50
2022-10-23T20:08:20.955Z,95130.75
2022-10-23T20:10:49.767Z,95126.41
2022-10-23T20:13:20.723Z,95142.06
2022-10-23T20:15:48.536Z,95124.94
2022-10-23T20:18:15.961Z,95137.03
2022-10-23T20:20:43.604Z,95144.59
2022-10-23T20:23:11.219Z,95143.25
2022-10-23T20:25:41.999Z,95153.06
2022-10-23T20:28:14.243Z,95167.16
2022-10-23T20:30:45.371Z,95171.84
2022-10-23T20:33:12.800Z,95160.84
2022-10-23T20:35:40.879Z,95167.16
2022-10-23T20:38:09.420Z,95180.75
2022-10-23T20:40:36.924Z,95149.91
2022-10-23T20:43:04.572Z,95175.00
2022-10-23T20:45:33.354Z,95175.00
2022-10-23T20:48:01.606Z,95186.28
2022-10-23T20:50:29.068Z,95183.25
2022-10-23T20:52:56.530Z,95184.72
2022-10-23T20:55:23.963Z,95179.50
2022-10-23T20:57:51.416Z,95172.69
2022-10-23T21:00:18.964Z,95183.75
2022-10-23T21:02:49.949Z,95177.44
2022-10-23T21:05:19.790Z,95186.78
2022-10-23T21:07:47.215Z,95181.81
2022-10-23T21:10:14.787Z,95186.47
2022-10-23T21:12:42.477Z,95191.44
2022-10-23T21:15:10.885Z,95186.28
2022-10-23T21:17:40.619Z,95193.34
2022-10-23T21:20:10.369Z,95177.59
2022-10-23T21:22:37.855Z,95195.28
2022-10-23T21:25:05.940Z,95195.97
2022-10-23T21:27:33.366Z,95184.31
2022-10-23T21:30:00.782Z,95194.34
2022-10-23T21:32:28.235Z,95201.38
2022-10-23T21:34:55.817Z,95192.22
2022-10-23T21:37:24.920Z,95192.94
2022-10-23T21:39:52.408Z,95205.81
2022-10-23T21:42:19.908Z,95198.81
2022-10-23T21:44:47.383Z,95202.69
2022-10-23T21:47:14.835Z,95190.25
2022-10-23T21:49:42.283Z,95198.09
2022-10-23T21:52:09.713Z,95198.09
2022-10-23T21:54:38.552Z,95195.84
2022-10-23T21:57:06.010Z,95178.00
2022-10-23T21:59:36.024Z,95198.22
2022-10-23T22:02:03.798Z,95188.06
2022-10-23T22:04:31.343Z,95172.25
2022-10-23T22:06:58.824Z,95196.47
2022-10-23T22:09:26.264Z,95188.25
2022-10-23T22:11:55.958Z,95190.38
2022-10-23T22:14:23.916Z,95186.69
2022-10-23T22:16:52.041Z,95190.75
2022-10-23T22:19:21.260Z,95183.09
2022-10-23T22:21:49.480Z,95185.78
2022-10-23T22:24:17.726Z,95183.16
2022-10-23T22:26:47.804Z,95192.72
2022-10-23T22:29:18.895Z,95179.72
2022-10-23T22:31:49.584Z,95181.91
2022-10-23T22:34:27.070Z,95182.78
2022-10-23T22:37:07.456Z,95184.34
2022-10-23T22:39:34.926Z,95180.59
2022-10-23T22:42:02.480Z,95190.88
2022-10-23T22:44:31.372Z,95190.31
2022-10-23T22:46:58.812Z,95183.28
2022-10-23T22:49:26.272Z,95178.91
2022-10-23T22:51:53.680Z,95177.94
2022-10-23T22:54:21.100Z,95176.66
2022-10-23T22:56:48.506Z,95177.44
2022-10-23T22:59:16.027Z,95171.75
2022-10-23T23:01:46.912Z,95181.16
2022-10-23T23:04:36.627Z,95169.94
2022-10-23T23:07:05.503Z,95176.06
2022-10-23T23:09:33.014Z,95177.41
2022-10-23T23:12:00.662Z,95176.13
2022-10-23T23:14:28.143Z,95169.81
2022-10-23T23:16:56.937Z,95161.97
2022-10-23T23:19:26.449Z,95161.47
2022-10-23T23:21:56.739Z,95163.09
2022-10-23T23:24:24.400Z,95166.72
2022-10-23T23:26:52.053Z,95163.78
2022-10-23T23:29:20.033Z,95162.34
2022-10-23T23:31:47.469Z,95151.75
2022-10-23T23:34:16.279Z,95171.75
2022-10-23T23:36:43.799Z,95155.22
2022-10-23T23:39:11.423Z,95148.06
2022-10-23T23:41:38.912Z,95161.16
2022-10-23T23:44:08.263Z,95156.72
2022-10-23T23:46:35.781Z,95152.38
2022-10-23T23:49:03.281Z,95141.41
2022-10-23T23:51:32.092Z,95137.72
2022-10-23T23:53:59.577Z,95144.75
2022-10-23T23:56:27.968Z,95147.28
2022-10-23T23:58:55.488Z,95151.09
